createdAt,value
2019-06-20T00:00:31.802Z,36.80
2019-06-20T00:01:08.499Z,35.70
2019-06-20T00:01:43.938Z,40.17
2019-06-20T00:02:20.183Z,39.13
2019-06-20T00:02:56.470Z,40.50
2019-06-20T00:03:31.948Z,38.70
2019-06-20T00:04:08.215Z,39.88
2019-06-20T00:04:44.406Z,40.15
2019-06-20T00:05:20.121Z,39.58
2019-06-20T00:05:56.323Z,40.30
2019-06-20T00:06:32.544Z,40.03
2019-06-20T00:07:08.011Z,40.15
2019-06-20T00:07:44.268Z,38.95
2019-06-20T00:08:20.499Z,38.23
2019-06-20T00:08:56.006Z,39.75
2019-06-20T00:09:32.259Z,38.23
2019-06-20T00:10:08.709Z,38.48
2019-06-20T00:10:44.592Z,39.92
2019-06-20T00:11:20.842Z,40.10
2019-06-20T00:11:58.303Z,36.50
2019-06-20T00:12:33.729Z,39.73
2019-06-20T00:13:10.097Z,37.20
2019-06-20T00:13:46.438Z,38.65
2019-06-20T00:14:21.915Z,37.48
2019-06-20T00:14:58.704Z,37.50
2019-06-20T00:15:35.167Z,39.23
2019-06-20T00:16:10.568Z,38.60
2019-06-20T00:16:46.790Z,35.08
2019-06-20T00:17:22.972Z,37.08
2019-06-20T00:17:58.406Z,35.30
2019-06-20T00:18:34.650Z,37.55
2019-06-20T00:19:11.105Z,39.03
2019-06-20T00:19:46.590Z,38.33
2019-06-20T00:20:22.860Z,36.25
2019-06-20T00:20:59.093Z,39.10
2019-06-20T00:21:34.564Z,35.85
2019-06-20T00:22:10.633Z,36.48
2019-06-20T00:22:46.878Z,34.92
2019-06-20T00:23:22.396Z,38.58
2019-06-20T00:23:58.676Z,35.92
2019-06-20T00:24:34.904Z,37.63
2019-06-20T00:25:10.329Z,35.20
2019-06-20T00:25:46.718Z,36.73
2019-06-20T00:26:23.843Z,38.67
2019-06-20T00:26:59.282Z,38.63
2019-06-20T00:27:35.488Z,38.60
2019-06-20T00:28:11.697Z,38.23
2019-06-20T00:28:47.168Z,36.75
2019-06-20T00:29:23.427Z,36.68
2019-06-20T00:29:59.618Z,37.40
2019-06-20T00:30:35.026Z,37.03
2019-06-20T00:31:11.263Z,36.95
2019-06-20T00:31:47.502Z,36.50
2019-06-20T00:32:22.934Z,39.95
2019-06-20T00:32:59.228Z,36.73
2019-06-20T00:33:35.473Z,36.15
2019-06-20T00:34:10.965Z,39.03
2019-06-20T00:34:47.219Z,36.25
2019-06-20T00:35:23.432Z,36.17
2019-06-20T00:35:58.915Z,35.28
2019-06-20T00:36:35.143Z,35.05
2019-06-20T00:37:11.392Z,36.28
2019-06-20T00:37:46.842Z,36.13
2019-06-20T00:38:23.199Z,36.42
2019-06-20T00:38:59.472Z,36.28
2019-06-20T00:39:34.991Z,36.42
2019-06-20T00:40:12.717Z,39.95
2019-06-20T00:40:48.981Z,38.65
2019-06-20T00:41:24.494Z,38.17
2019-06-20T00:42:00.723Z,35.15
2019-06-20T00:42:36.927Z,39.98
2019-06-20T00:43:17.295Z,40.25
2019-06-20T00:43:50.404Z,38.78
2019-06-20T00:44:26.713Z,37.48
2019-06-20T00:45:02.180Z,37.83
2019-06-20T00:45:38.412Z,39.60
2019-06-20T00:46:14.734Z,38.15
2019-06-20T00:46:50.196Z,35.92
2019-06-20T00:47:26.432Z,36.08
2019-06-20T00:48:02.665Z,37.65
2019-06-20T00:48:38.101Z,36.45
2019-06-20T00:49:14.343Z,38.28
2019-06-20T00:49:50.638Z,38.90
2019-06-20T00:50:26.233Z,36.73
2019-06-20T00:51:02.477Z,37.60
2019-06-20T00:51:38.779Z,34.75
2019-06-20T00:52:14.205Z,37.75
2019-06-20T00:52:50.457Z,37.67
2019-06-20T00:53:26.709Z,36.73
2019-06-20T00:54:02.181Z,35.68
2019-06-20T00:54:38.401Z,35.40
2019-06-20T00:55:14.690Z,37.75
2019-06-20T00:55:50.171Z,39.45
2019-06-20T00:56:26.413Z,37.13
2019-06-20T00:57:02.705Z,37.03
2019-06-20T00:57:38.194Z,36.75
2019-06-20T00:58:14.434Z,37.13
2019-06-20T00:58:51.032Z,36.75
2019-06-20T00:59:26.445Z,36.20
2019-06-20T01:00:02.738Z,37.28
2019-06-20T01:00:39.008Z,38.08
2019-06-20T01:01:15.089Z,36.85
2019-06-20T01:01:51.335Z,40.05
2019-06-20T01:02:27.562Z,37.15
2019-06-20T01:03:03.036Z,38.80
2019-06-20T01:03:39.272Z,38.30
2019-06-20T01:04:15.633Z,37.15
2019-06-20T01:04:51.070Z,34.70
2019-06-20T01:05:27.256Z,36.42
2019-06-20T01:06:03.490Z,38.35
2019-06-20T01:06:38.942Z,37.10
2019-06-20T01:07:15.178Z,37.55
2019-06-20T01:07:51.450Z,35.38
2019-06-20T01:08:26.915Z,37.45
2019-06-20T01:09:03.170Z,37.63
2019-06-20T01:09:39.417Z,36.60
2019-06-20T01:10:15.275Z,35.38
2019-06-20T01:10:51.541Z,38.85
2019-06-20T01:11:27.766Z,35.40
2019-06-20T01:12:03.189Z,36.77
2019-06-20T01:12:39.474Z,36.17
2019-06-20T01:13:15.772Z,36.90
2019-06-20T01:13:52.893Z,36.38
2019-06-20T01:14:29.302Z,36.93
2019-06-20T01:15:06.594Z,38.55
2019-06-20T01:15:42.103Z,38.85
2019-06-20T01:16:18.350Z,38.35
2019-06-20T01:16:54.596Z,36.80
2019-06-20T01:17:30.068Z,39.55
2019-06-20T01:18:06.419Z,37.93
2019-06-20T01:18:42.626Z,37.67
2019-06-20T01:19:18.210Z,38.65
2019-06-20T01:19:58.138Z,37.73
2019-06-20T01:20:32.496Z,37.25
2019-06-20T01:21:08.902Z,38.50
2019-06-20T01:21:45.150Z,38.05
2019-06-20T01:22:21.368Z,36.58
2019-06-20T01:22:56.800Z,39.25
2019-06-20T01:23:33.228Z,36.42
2019-06-20T01:24:09.447Z,39.13
2019-06-20T01:24:44.918Z,38.25
2019-06-20T01:25:39.249Z,38.78
2019-06-20T01:26:15.474Z,37.53
2019-06-20T01:26:51.074Z,37.67
2019-06-20T01:27:27.314Z,37.25
2019-06-20T01:28:03.565Z,36.60
2019-06-20T01:28:39.041Z,39.63
2019-06-20T01:29:15.265Z,39.13
2019-06-20T01:29:51.583Z,39.45
2019-06-20T01:30:27.030Z,39.45
2019-06-20T01:31:03.298Z,38.17
2019-06-20T01:31:39.542Z,39.33
2019-06-20T01:32:15.040Z,39.67
2019-06-20T01:32:51.308Z,37.78
2019-06-20T01:33:27.494Z,39.40
2019-06-20T01:34:03.101Z,37.70
2019-06-20T01:34:39.348Z,40.92
2019-06-20T01:35:15.821Z,40.05
2019-06-20T01:35:51.250Z,40.15
2019-06-20T01:36:27.504Z,42.78
2019-06-20T01:37:03.752Z,41.80
2019-06-20T01:37:39.407Z,41.58
2019-06-20T01:38:15.619Z,41.00
2019-06-20T01:38:51.863Z,42.67
2019-06-20T01:39:27.464Z,44.58
2019-06-20T01:40:03.759Z,43.60
2019-06-20T01:40:40.065Z,42.27
2019-06-20T01:41:15.633Z,43.58
2019-06-20T01:41:51.969Z,42.30
2019-06-20T01:42:28.149Z,43.60
2019-06-20T01:43:03.752Z,45.58
2019-06-20T01:43:50.077Z,42.40
2019-06-20T01:44:17.923Z,43.55
2019-06-20T01:44:53.420Z,43.85
2019-06-20T01:45:29.697Z,44.83
2019-06-20T01:46:06.007Z,43.55
2019-06-20T01:46:41.467Z,42.65
2019-06-20T01:47:17.739Z,44.65
2019-06-20T01:47:53.951Z,46.85
2019-06-20T01:48:29.386Z,45.70
2019-06-20T01:49:05.897Z,42.58
2019-06-20T01:49:42.189Z,44.30
2019-06-20T01:50:17.730Z,45.88
2019-06-20T01:50:54.004Z,48.28
2019-06-20T01:51:30.232Z,45.08
2019-06-20T01:52:05.673Z,46.83
2019-06-20T01:52:41.910Z,40.80
2019-06-20T01:53:18.173Z,44.38
2019-06-20T01:53:53.634Z,41.98
2019-06-20T01:54:29.874Z,43.13
2019-06-20T01:55:06.327Z,43.15
2019-06-20T01:55:42.226Z,44.25
2019-06-20T01:56:19.981Z,40.33
2019-06-20T01:56:56.359Z,40.23
2019-06-20T01:57:31.827Z,44.13
2019-06-20T01:58:08.060Z,41.20
2019-06-20T01:58:44.350Z,41.48
2019-06-20T01:59:19.835Z,44.35
2019-06-20T01:59:56.093Z,43.23
2019-06-20T02:00:51.883Z,43.52
2019-06-20T02:01:27.313Z,43.33
2019-06-20T02:02:03.616Z,43.25
2019-06-20T02:02:39.902Z,40.92
2019-06-20T02:03:16.003Z,38.08
2019-06-20T02:03:52.242Z,41.75
2019-06-20T02:04:28.462Z,40.67
2019-06-20T02:05:04.741Z,40.58
2019-06-20T02:05:40.991Z,40.88
2019-06-20T02:06:17.180Z,42.85
2019-06-20T02:06:52.639Z,41.80
2019-06-20T02:07:28.999Z,41.10
2019-06-20T02:08:05.224Z,41.33
2019-06-20T02:08:40.658Z,42.45
2019-06-20T02:09:16.891Z,40.55
2019-06-20T02:09:54.788Z,42.53
2019-06-20T02:10:30.243Z,43.45
2019-06-20T02:11:06.668Z,42.80
2019-06-20T02:11:43.092Z,42.27
2019-06-20T02:12:18.534Z,43.87
2019-06-20T02:12:54.788Z,44.15
2019-06-20T02:13:31.035Z,41.88
2019-06-20T02:14:07.721Z,41.50
2019-06-20T02:14:44.117Z,39.60
2019-06-20T02:15:20.328Z,40.23
2019-06-20T02:15:55.761Z,41.35
2019-06-20T02:16:31.959Z,38.38
2019-06-20T02:17:08.200Z,43.65
2019-06-20T02:17:43.686Z,41.35
2019-06-20T02:18:19.932Z,38.75
2019-06-20T02:18:56.162Z,40.83
2019-06-20T02:19:31.595Z,40.25
2019-06-20T02:20:08.924Z,40.85
2019-06-20T02:20:53.075Z,42.15
2019-06-20T02:21:28.639Z,38.88
2019-06-20T02:22:04.898Z,38.35
2019-06-20T02:22:41.130Z,39.13
2019-06-20T02:23:16.743Z,39.65
2019-06-20T02:23:52.964Z,43.02
2019-06-20T02:24:29.324Z,42.25
2019-06-20T02:25:05.608Z,40.03
2019-06-20T02:25:41.867Z,41.98
2019-06-20T02:26:18.121Z,40.48
2019-06-20T02:26:53.531Z,40.10
2019-06-20T02:27:29.932Z,38.20
2019-06-20T02:28:06.197Z,36.95
2019-06-20T02:28:41.636Z,34.95
2019-06-20T02:29:17.929Z,39.65
2019-06-20T02:29:54.361Z,37.85
2019-06-20T02:30:29.879Z,38.33
2019-06-20T02:31:06.130Z,38.00
2019-06-20T02:31:42.449Z,39.73
2019-06-20T02:32:17.858Z,39.42
2019-06-20T02:32:54.126Z,40.83
2019-06-20T02:33:30.395Z,41.65
2019-06-20T02:34:06.096Z,40.12
2019-06-20T02:34:42.489Z,40.30
2019-06-20T02:35:18.734Z,41.90
2019-06-20T02:35:54.130Z,42.33
2019-06-20T02:36:30.405Z,41.73
2019-06-20T02:37:06.591Z,40.38
2019-06-20T02:37:42.044Z,42.70
2019-06-20T02:38:18.316Z,41.05
2019-06-20T02:38:54.556Z,43.98
2019-06-20T02:39:30.024Z,43.80
2019-06-20T02:40:06.823Z,41.88
2019-06-20T02:40:43.042Z,40.12
2019-06-20T02:41:18.493Z,45.05
2019-06-20T02:41:54.725Z,47.05
2019-06-20T02:42:30.945Z,46.02
2019-06-20T02:43:06.993Z,47.08
2019-06-20T02:43:43.274Z,47.33
2019-06-20T02:44:30.175Z,50.40
2019-06-20T02:44:56.833Z,51.55
2019-06-20T02:45:38.108Z,51.40
2019-06-20T02:46:14.343Z,47.85
2019-06-20T02:46:49.862Z,47.05
2019-06-20T02:47:26.229Z,50.12
2019-06-20T02:48:02.672Z,50.40
2019-06-20T02:48:38.148Z,50.58
2019-06-20T02:49:14.417Z,47.45
2019-06-20T02:49:50.744Z,46.05
2019-06-20T02:50:27.189Z,51.05
2019-06-20T02:51:05.837Z,48.60
2019-06-20T02:51:42.270Z,49.00
2019-06-20T02:52:17.702Z,50.70
2019-06-20T02:52:53.922Z,50.63
2019-06-20T02:53:30.231Z,49.33
2019-06-20T02:54:05.696Z,50.55
2019-06-20T02:54:41.956Z,48.40
2019-06-20T02:55:18.495Z,52.05
2019-06-20T02:55:53.911Z,51.40
2019-06-20T02:56:30.152Z,52.20
2019-06-20T02:57:06.375Z,51.20
2019-06-20T02:57:41.840Z,52.65
2019-06-20T02:58:18.087Z,52.10
2019-06-20T02:58:54.314Z,51.85
2019-06-20T02:59:30.171Z,53.20
2019-06-20T03:00:07.588Z,51.02
2019-06-20T03:00:59.247Z,51.92
2019-06-20T03:01:34.757Z,50.40
2019-06-20T03:02:11.012Z,52.85
2019-06-20T03:02:47.267Z,53.00
2019-06-20T03:03:24.301Z,53.58
2019-06-20T03:04:00.612Z,51.95
2019-06-20T03:04:36.931Z,53.05
2019-06-20T03:05:12.493Z,52.10
2019-06-20T03:05:48.776Z,52.95
2019-06-20T03:06:25.015Z,55.65
2019-06-20T03:07:00.609Z,54.67
2019-06-20T03:07:36.863Z,53.55
2019-06-20T03:08:13.689Z,53.83
2019-06-20T03:08:49.115Z,52.55
2019-06-20T03:09:25.346Z,51.68
2019-06-20T03:10:01.618Z,55.45
2019-06-20T03:10:37.093Z,54.40
2019-06-20T03:11:13.371Z,52.73
2019-06-20T03:11:49.586Z,54.63
2019-06-20T03:12:24.992Z,55.67
2019-06-20T03:13:01.262Z,55.40
2019-06-20T03:13:37.518Z,55.38
2019-06-20T03:14:12.963Z,57.93
2019-06-20T03:14:49.224Z,51.13
2019-06-20T03:15:25.494Z,53.90
2019-06-20T03:16:00.998Z,56.13
2019-06-20T03:16:37.254Z,58.08
2019-06-20T03:17:13.478Z,51.00
2019-06-20T03:17:48.911Z,53.52
2019-06-20T03:18:25.105Z,54.80
2019-06-20T03:19:01.317Z,52.62
2019-06-20T03:19:38.338Z,54.35
2019-06-20T03:20:15.313Z,52.10
2019-06-20T03:20:51.534Z,52.55
2019-06-20T03:21:26.949Z,52.65
2019-06-20T03:22:03.208Z,52.17
2019-06-20T03:22:39.416Z,52.20
2019-06-20T03:23:14.919Z,49.50
2019-06-20T03:23:51.221Z,52.80
2019-06-20T03:24:27.410Z,55.03
2019-06-20T03:25:02.917Z,51.35
2019-06-20T03:25:39.163Z,52.25
2019-06-20T03:26:15.451Z,52.27
2019-06-20T03:26:50.888Z,52.98
2019-06-20T03:27:27.170Z,52.38
2019-06-20T03:28:03.452Z,51.60
2019-06-20T03:28:38.918Z,53.15
2019-06-20T03:29:15.162Z,48.95
2019-06-20T03:29:51.438Z,52.43
2019-06-20T03:30:26.913Z,52.58
2019-06-20T03:31:03.195Z,48.25
2019-06-20T03:31:39.382Z,52.75
2019-06-20T03:32:14.947Z,55.23
2019-06-20T03:32:51.216Z,52.50
2019-06-20T03:33:27.390Z,53.13
2019-06-20T03:34:02.827Z,53.00
2019-06-20T03:34:39.056Z,53.20
2019-06-20T03:35:15.341Z,53.68
2019-06-20T03:35:50.767Z,53.30
2019-06-20T03:36:27.026Z,53.75
2019-06-20T03:37:03.355Z,52.58
2019-06-20T03:37:38.818Z,51.90
2019-06-20T03:38:15.055Z,52.75
2019-06-20T03:38:51.250Z,49.73
2019-06-20T03:39:26.704Z,54.03
2019-06-20T03:40:02.881Z,51.10
2019-06-20T03:40:39.127Z,53.13
2019-06-20T03:41:14.576Z,57.95
2019-06-20T03:41:50.803Z,53.00
2019-06-20T03:42:27.050Z,51.45
2019-06-20T03:43:02.519Z,49.93
2019-06-20T03:43:38.775Z,52.95
2019-06-20T03:44:14.968Z,54.18
2019-06-20T03:45:01.814Z,54.60
2019-06-20T03:45:28.437Z,54.58
2019-06-20T03:46:04.664Z,54.83
2019-06-20T03:46:40.085Z,54.93
2019-06-20T03:47:24.354Z,55.15
2019-06-20T03:48:00.679Z,51.18
2019-06-20T03:48:36.178Z,55.12
2019-06-20T03:49:12.386Z,51.37
2019-06-20T03:49:48.602Z,54.27
2019-06-20T03:50:24.010Z,55.20
2019-06-20T03:51:00.213Z,53.33
2019-06-20T03:51:36.425Z,53.02
2019-06-20T03:52:11.849Z,50.88
2019-06-20T03:52:49.772Z,53.25
2019-06-20T03:53:25.987Z,53.30
2019-06-20T03:54:01.398Z,49.45
2019-06-20T03:54:37.597Z,48.87
2019-06-20T03:55:14.257Z,51.18
2019-06-20T03:55:49.693Z,53.58
2019-06-20T03:56:26.009Z,51.83
2019-06-20T03:57:02.297Z,53.20
2019-06-20T03:57:37.743Z,54.60
2019-06-20T03:58:13.954Z,51.48
2019-06-20T03:58:50.297Z,49.55
2019-06-20T03:59:25.846Z,51.00
2019-06-20T04:00:02.700Z,47.38
2019-06-20T04:00:39.322Z,53.02
2019-06-20T04:01:14.786Z,47.50
2019-06-20T04:01:51.015Z,47.53
2019-06-20T04:02:27.197Z,46.42
2019-06-20T04:03:03.112Z,46.45
2019-06-20T04:03:39.410Z,46.88
2019-06-20T04:04:15.696Z,47.50
2019-06-20T04:04:51.128Z,47.08
2019-06-20T04:05:27.403Z,47.67
2019-06-20T04:06:03.645Z,48.68
2019-06-20T04:06:39.121Z,47.40
2019-06-20T04:07:15.345Z,49.40
2019-06-20T04:07:51.557Z,48.33
2019-06-20T04:08:27.146Z,48.50
2019-06-20T04:09:03.425Z,47.15
2019-06-20T04:09:39.664Z,48.78
2019-06-20T04:10:15.225Z,46.35
2019-06-20T04:10:51.400Z,48.25
2019-06-20T04:11:27.628Z,51.45
2019-06-20T04:12:03.177Z,47.60
2019-06-20T04:12:39.421Z,48.83
2019-06-20T04:13:15.663Z,46.48
2019-06-20T04:13:51.069Z,48.23
2019-06-20T04:14:27.392Z,47.40
2019-06-20T04:15:17.987Z,47.20
2019-06-20T04:15:40.901Z,53.63
2019-06-20T04:16:17.151Z,49.55
2019-06-20T04:16:53.393Z,46.65
2019-06-20T04:17:28.867Z,48.95
2019-06-20T04:18:05.166Z,42.90
2019-06-20T04:18:42.791Z,47.67
2019-06-20T04:19:18.323Z,46.83
2019-06-20T04:19:54.553Z,44.58
2019-06-20T04:20:30.790Z,45.30
2019-06-20T04:21:06.394Z,47.00
2019-06-20T04:21:42.833Z,54.30
2019-06-20T04:22:19.061Z,44.95
2019-06-20T04:22:54.525Z,47.95
2019-06-20T04:23:30.803Z,51.15
2019-06-20T04:24:07.047Z,45.48
2019-06-20T04:24:42.775Z,42.35
2019-06-20T04:25:19.116Z,43.33
2019-06-20T04:25:55.365Z,46.50
2019-06-20T04:26:30.827Z,47.03
2019-06-20T04:27:07.107Z,45.90
2019-06-20T04:27:43.361Z,41.75
2019-06-20T04:28:19.263Z,42.67
2019-06-20T04:28:55.529Z,40.10
2019-06-20T04:29:31.702Z,42.75
2019-06-20T04:30:08.935Z,42.70
2019-06-20T04:30:45.240Z,40.48
2019-06-20T04:31:21.656Z,42.20
2019-06-20T04:31:57.008Z,41.15
2019-06-20T04:32:33.315Z,42.50
2019-06-20T04:33:09.587Z,43.60
2019-06-20T04:33:45.064Z,42.08
2019-06-20T04:34:21.288Z,41.68
2019-06-20T04:34:57.541Z,47.55
2019-06-20T04:35:32.957Z,42.48
2019-06-20T04:36:09.219Z,46.10
2019-06-20T04:36:48.059Z,42.95
2019-06-20T04:37:22.724Z,42.58
2019-06-20T04:37:59.051Z,42.50
2019-06-20T04:38:35.309Z,42.78
2019-06-20T04:39:19.220Z,41.20
2019-06-20T04:39:48.813Z,40.17
2019-06-20T04:40:25.051Z,40.92
2019-06-20T04:41:00.521Z,42.27
2019-06-20T04:41:36.767Z,40.78
2019-06-20T04:42:12.950Z,42.53
2019-06-20T04:42:48.431Z,41.77
2019-06-20T04:43:24.719Z,45.60
2019-06-20T04:44:00.923Z,44.98
2019-06-20T04:44:36.536Z,40.83
2019-06-20T04:45:34.631Z,42.45
2019-06-20T04:46:07.084Z,42.30
2019-06-20T04:46:48.071Z,41.05
2019-06-20T04:47:24.290Z,43.63
2019-06-20T04:48:00.768Z,40.73
2019-06-20T04:48:36.190Z,42.78
2019-06-20T04:49:12.374Z,39.00
2019-06-20T04:49:48.634Z,43.38
2019-06-20T04:50:24.071Z,42.40
2019-06-20T04:51:00.347Z,42.95
2019-06-20T04:51:36.559Z,39.88
2019-06-20T04:52:12.386Z,40.50
2019-06-20T04:52:48.637Z,41.95
2019-06-20T04:53:24.914Z,43.48
2019-06-20T04:54:00.424Z,35.45
2019-06-20T04:54:36.695Z,33.33
2019-06-20T04:55:13.272Z,30.45
2019-06-20T04:55:48.742Z,31.37
2019-06-20T04:56:25.129Z,34.85
2019-06-20T04:57:01.518Z,30.77
2019-06-20T04:57:37.048Z,31.05
2019-06-20T04:58:14.444Z,29.23
2019-06-20T04:58:50.821Z,26.80
2019-06-20T04:59:26.291Z,28.07
2019-06-20T05:00:05.253Z,29.95
2019-06-20T05:00:41.600Z,28.23
2019-06-20T05:01:17.189Z,25.85
2019-06-20T05:01:54.910Z,29.90
2019-06-20T05:02:37.281Z,28.50
2019-06-20T05:03:12.829Z,27.65
2019-06-20T05:03:49.082Z,24.98
2019-06-20T05:04:25.330Z,26.02
2019-06-20T05:05:00.872Z,27.60
2019-06-20T05:05:37.187Z,27.62
2019-06-20T05:06:13.499Z,30.20
2019-06-20T05:06:54.060Z,28.23
2019-06-20T05:07:30.323Z,25.97
2019-06-20T05:08:06.609Z,24.98
2019-06-20T05:08:42.140Z,26.00
2019-06-20T05:09:18.421Z,21.87
2019-06-20T05:09:54.645Z,25.80
2019-06-20T05:10:30.145Z,28.62
2019-06-20T05:11:06.490Z,21.90
2019-06-20T05:11:42.696Z,22.90
2019-06-20T05:12:18.187Z,24.50
2019-06-20T05:12:56.076Z,26.35
2019-06-20T05:13:32.363Z,18.40
2019-06-20T05:14:07.785Z,24.30
2019-06-20T05:14:44.050Z,23.22
2019-06-20T05:15:20.479Z,23.32
2019-06-20T05:15:55.958Z,21.45
2019-06-20T05:16:32.307Z,19.42
2019-06-20T05:17:08.576Z,23.02
2019-06-20T05:17:44.086Z,24.40
2019-06-20T05:18:20.329Z,22.82
2019-06-20T05:18:56.553Z,22.30
2019-06-20T05:19:32.054Z,19.55
2019-06-20T05:20:08.581Z,18.48
2019-06-20T05:20:45.595Z,20.00
2019-06-20T05:21:22.462Z,19.57
2019-06-20T05:21:58.799Z,18.52
2019-06-20T05:22:35.037Z,18.52
2019-06-20T05:23:10.523Z,20.77
2019-06-20T05:23:46.745Z,19.12
2019-06-20T05:24:25.547Z,18.35
2019-06-20T05:25:00.193Z,21.00
2019-06-20T05:25:36.845Z,21.52
2019-06-20T05:26:13.040Z,17.92
2019-06-20T05:26:48.535Z,23.12
2019-06-20T05:27:24.798Z,18.75
2019-06-20T05:28:01.454Z,18.98
2019-06-20T05:28:36.887Z,18.67
2019-06-20T05:29:13.149Z,17.98
2019-06-20T05:29:49.489Z,18.62
2019-06-20T05:30:25.167Z,27.10
2019-06-20T05:31:01.455Z,21.10
2019-06-20T05:31:37.778Z,19.37
2019-06-20T05:32:13.255Z,20.60
2019-06-20T05:32:49.462Z,19.57
2019-06-20T05:33:25.691Z,19.27
2019-06-20T05:34:01.255Z,17.15
2019-06-20T05:34:37.614Z,20.30
2019-06-20T05:35:14.276Z,22.85
2019-06-20T05:35:49.852Z,18.32
2019-06-20T05:36:26.094Z,19.73
2019-06-20T05:37:02.332Z,22.48
2019-06-20T05:37:37.799Z,20.30
2019-06-20T05:38:14.011Z,22.37
2019-06-20T05:38:50.394Z,19.82
2019-06-20T05:39:25.903Z,18.85
2019-06-20T05:40:03.661Z,18.35
2019-06-20T05:40:39.884Z,22.07
2019-06-20T05:41:15.379Z,18.62
2019-06-20T05:41:51.584Z,17.82
2019-06-20T05:42:27.825Z,20.77
2019-06-20T05:43:03.418Z,20.17
2019-06-20T05:43:39.932Z,16.23
2019-06-20T05:44:16.187Z,19.10
2019-06-20T05:44:51.638Z,19.98
2019-06-20T05:45:27.937Z,17.35
2019-06-20T05:46:09.242Z,16.45
2019-06-20T05:46:41.380Z,18.17
2019-06-20T05:47:17.672Z,19.00
2019-06-20T05:47:53.951Z,18.77
2019-06-20T05:48:29.505Z,18.90
2019-06-20T05:49:05.714Z,16.57
2019-06-20T05:49:41.939Z,18.42
2019-06-20T05:50:18.259Z,22.58
2019-06-20T05:50:54.613Z,15.88
2019-06-20T05:51:31.011Z,16.37
2019-06-20T05:52:06.473Z,19.80
2019-06-20T05:52:42.726Z,15.98
2019-06-20T05:53:18.995Z,15.72
2019-06-20T05:53:54.492Z,15.05
2019-06-20T05:54:30.786Z,19.07
2019-06-20T05:55:07.626Z,17.17
2019-06-20T05:55:43.092Z,18.17
2019-06-20T05:56:19.334Z,16.52
2019-06-20T05:56:55.647Z,16.15
2019-06-20T05:57:31.042Z,18.02
2019-06-20T05:58:08.304Z,16.90
2019-06-20T05:58:44.532Z,16.25
2019-06-20T05:59:20.089Z,18.48
2019-06-20T05:59:56.310Z,17.65
2019-06-20T06:00:32.750Z,19.10
2019-06-20T06:01:08.303Z,20.35
2019-06-20T06:01:44.581Z,18.00
2019-06-20T06:02:20.852Z,18.60
2019-06-20T06:02:56.353Z,17.77
2019-06-20T06:03:33.565Z,16.60
2019-06-20T06:04:09.874Z,16.07
2019-06-20T06:04:45.334Z,15.60
2019-06-20T06:05:21.580Z,16.73
2019-06-20T06:05:57.762Z,17.37
2019-06-20T06:06:33.647Z,17.27
2019-06-20T06:07:09.910Z,19.40
2019-06-20T06:07:46.212Z,17.17
2019-06-20T06:08:21.686Z,19.87
2019-06-20T06:08:57.959Z,18.87
2019-06-20T06:09:34.246Z,21.12
2019-06-20T06:10:10.654Z,16.95
2019-06-20T06:10:47.099Z,21.42
2019-06-20T06:11:23.419Z,17.27
2019-06-20T06:11:58.892Z,16.27
2019-06-20T06:12:36.323Z,17.35
2019-06-20T06:13:12.676Z,16.10
2019-06-20T06:13:48.308Z,17.60
2019-06-20T06:14:26.219Z,18.42
2019-06-20T06:15:02.422Z,19.85
2019-06-20T06:15:37.923Z,17.80
2019-06-20T06:16:25.730Z,17.92
2019-06-20T06:16:52.114Z,21.20
2019-06-20T06:17:27.584Z,17.02
2019-06-20T06:18:03.864Z,17.57
2019-06-20T06:18:40.112Z,20.32
2019-06-20T06:19:15.632Z,16.87
2019-06-20T06:19:51.881Z,17.77
2019-06-20T06:20:28.095Z,17.02
2019-06-20T06:21:03.561Z,17.45
2019-06-20T06:21:39.870Z,18.80
2019-06-20T06:22:17.876Z,20.52
2019-06-20T06:22:53.591Z,16.97
2019-06-20T06:23:29.969Z,18.35
2019-06-20T06:24:06.216Z,15.90
2019-06-20T06:24:41.672Z,14.87
2019-06-20T06:25:18.333Z,18.12
2019-06-20T06:25:54.537Z,17.48
2019-06-20T06:26:30.113Z,15.88
2019-06-20T06:27:06.366Z,14.00
2019-06-20T06:27:42.636Z,14.90
2019-06-20T06:28:18.146Z,17.05
2019-06-20T06:28:54.429Z,14.45
2019-06-20T06:29:30.703Z,17.95
2019-06-20T06:30:08.388Z,14.00
2019-06-20T06:30:44.777Z,14.98
2019-06-20T06:31:21.035Z,15.85
2019-06-20T06:31:56.493Z,14.78
2019-06-20T06:32:40.135Z,13.25
2019-06-20T06:33:10.802Z,15.10
2019-06-20T06:33:46.272Z,16.25
2019-06-20T06:34:22.506Z,17.62
2019-06-20T06:34:58.850Z,15.63
2019-06-20T06:35:34.364Z,14.38
2019-06-20T06:36:10.585Z,15.15
2019-06-20T06:36:47.153Z,14.45
2019-06-20T06:37:22.672Z,16.32
2019-06-20T06:37:59.501Z,14.05
2019-06-20T06:38:35.875Z,15.83
2019-06-20T06:39:11.883Z,15.53
2019-06-20T06:39:48.085Z,13.83
2019-06-20T06:40:24.866Z,14.03
2019-06-20T06:41:00.308Z,12.98
2019-06-20T06:41:37.033Z,13.98
2019-06-20T06:42:13.247Z,15.30
2019-06-20T06:42:48.751Z,12.63
2019-06-20T06:43:25.001Z,14.18
2019-06-20T06:44:01.250Z,12.75
2019-06-20T06:44:36.721Z,14.58
2019-06-20T06:45:13.987Z,14.00
2019-06-20T06:45:50.308Z,14.60
2019-06-20T06:46:42.550Z,13.55
2019-06-20T06:47:03.800Z,15.38
2019-06-20T06:47:40.041Z,12.73
2019-06-20T06:48:15.695Z,14.05
2019-06-20T06:48:51.892Z,14.70
2019-06-20T06:49:28.114Z,15.10
2019-06-20T06:50:03.743Z,13.48
2019-06-20T06:50:40.080Z,13.93
2019-06-20T06:51:16.490Z,14.15
2019-06-20T06:51:53.121Z,14.03
2019-06-20T06:52:29.490Z,15.68
2019-06-20T06:53:05.764Z,14.63
2019-06-20T06:53:41.251Z,16.48
2019-06-20T06:54:18.823Z,15.95
2019-06-20T06:54:55.205Z,15.50
2019-06-20T06:55:30.660Z,15.43
2019-06-20T06:56:06.921Z,17.27
2019-06-20T06:56:43.253Z,15.08
2019-06-20T06:57:20.010Z,17.77
2019-06-20T06:57:56.294Z,15.63
2019-06-20T06:58:32.575Z,16.00
2019-06-20T06:59:08.128Z,20.20
2019-06-20T06:59:44.365Z,19.82
2019-06-20T07:00:21.436Z,22.07
2019-06-20T07:00:56.893Z,25.45
2019-06-20T07:01:33.399Z,22.40
2019-06-20T07:02:09.629Z,23.83
2019-06-20T07:02:45.114Z,24.50
2019-06-20T07:03:21.317Z,22.98
2019-06-20T07:03:57.592Z,24.85
2019-06-20T07:04:33.047Z,29.32
2019-06-20T07:05:10.003Z,25.80
2019-06-20T07:05:46.230Z,26.12
2019-06-20T07:06:21.924Z,25.62
2019-06-20T07:06:58.298Z,27.20
2019-06-20T07:07:34.594Z,31.87
2019-06-20T07:08:10.118Z,26.80
2019-06-20T07:08:46.380Z,26.00
2019-06-20T07:09:22.713Z,29.27
2019-06-20T07:09:59.150Z,26.85
2019-06-20T07:10:35.364Z,26.68
2019-06-20T07:11:11.717Z,29.32
2019-06-20T07:11:47.175Z,26.77
2019-06-20T07:12:23.420Z,26.93
2019-06-20T07:12:59.624Z,25.48
2019-06-20T07:13:35.132Z,29.25
2019-06-20T07:14:11.383Z,25.77
2019-06-20T07:14:47.595Z,27.22
2019-06-20T07:15:23.336Z,27.00
2019-06-20T07:15:59.819Z,28.20
2019-06-20T07:16:36.075Z,28.23
2019-06-20T07:17:11.537Z,26.65
2019-06-20T07:17:48.180Z,28.55
2019-06-20T07:18:24.404Z,27.98
2019-06-20T07:19:00.420Z,28.42
2019-06-20T07:19:36.712Z,31.65
2019-06-20T07:20:15.396Z,29.77
2019-06-20T07:20:50.918Z,29.15
2019-06-20T07:21:27.229Z,27.98
2019-06-20T07:22:03.532Z,27.67
2019-06-20T07:22:39.083Z,28.00
2019-06-20T07:23:15.320Z,29.52
2019-06-20T07:23:51.543Z,30.32
2019-06-20T07:24:26.996Z,28.67
2019-06-20T07:25:03.784Z,29.32
2019-06-20T07:25:40.139Z,28.25
2019-06-20T07:26:15.626Z,29.05
2019-06-20T07:26:52.010Z,29.18
2019-06-20T07:27:28.288Z,30.70
2019-06-20T07:28:03.776Z,30.05
2019-06-20T07:28:40.009Z,30.10
2019-06-20T07:29:16.546Z,29.87
2019-06-20T07:29:52.088Z,28.83
2019-06-20T07:30:28.503Z,27.85
2019-06-20T07:31:04.846Z,26.77
2019-06-20T07:31:40.338Z,26.60
2019-06-20T07:32:16.654Z,27.73
2019-06-20T07:32:52.878Z,29.35
2019-06-20T07:33:28.310Z,26.57
2019-06-20T07:34:04.564Z,25.32
2019-06-20T07:34:40.830Z,26.82
2019-06-20T07:35:16.815Z,27.37
2019-06-20T07:35:53.030Z,26.73
2019-06-20T07:36:29.268Z,27.17
2019-06-20T07:37:04.804Z,29.27
2019-06-20T07:37:41.033Z,28.65
2019-06-20T07:38:17.318Z,26.90
2019-06-20T07:38:52.876Z,29.35
2019-06-20T07:39:29.136Z,27.35
2019-06-20T07:40:06.869Z,27.17
2019-06-20T07:40:42.361Z,28.07
2019-06-20T07:41:18.651Z,26.27
2019-06-20T07:41:54.864Z,28.25
2019-06-20T07:42:30.393Z,28.35
2019-06-20T07:43:06.876Z,27.02
2019-06-20T07:43:43.133Z,24.90
2019-06-20T07:44:18.622Z,26.02
2019-06-20T07:44:54.854Z,26.68
2019-06-20T07:45:31.184Z,25.00
2019-06-20T07:46:06.683Z,26.65
2019-06-20T07:46:42.905Z,28.75
2019-06-20T07:47:19.186Z,26.93